sensor_id;sensor_type;location;lat;lon;timestamp;P1;durP1;ratioP1;P2;durP2;ratioP2
42384;SDS011;28042;43.986;22.860;2023-07-31T00:00:58;16.33;;;14.73;;
42384;SDS011;28042;43.986;22.860;2023-07-31T00:03:23;18.67;;;14.98;;
42384;SDS011;28042;43.986;22.860;2023-07-31T00:05:49;17.23;;;14.25;;
42384;SDS011;28042;43.986;22.860;2023-07-31T00:08:14;14.82;;;13.40;;
42384;SDS011;28042;43.986;22.860;2023-07-31T00:10:39;15.50;;;13.90;;
42384;SDS011;28042;43.986;22.860;2023-07-31T00:13:05;15.68;;;14.02;;
42384;SDS011;28042;43.986;22.860;2023-07-31T00:15:30;14.88;;;13.52;;
42384;SDS011;28042;43.986;22.860;2023-07-31T00:17:56;16.30;;;14.57;;
42384;SDS011;28042;43.986;22.860;2023-07-31T00:20:21;18.58;;;15.07;;
42384;SDS011;28042;43.986;22.860;2023-07-31T00:22:47;16.27;;;14.65;;
42384;SDS011;28042;43.986;22.860;2023-07-31T00:25:12;16.80;;;14.18;;
42384;SDS011;28042;43.986;22.860;2023-07-31T00:27:38;16.13;;;13.57;;
42384;SDS011;28042;43.986;22.860;2023-07-31T00:30:03;15.90;;;14.30;;
42384;SDS011;28042;43.986;22.860;2023-07-31T00:32:29;18.67;;;15.10;;
42384;SDS011;28042;43.986;22.860;2023-07-31T00:34:54;16.67;;;15.07;;
42384;SDS011;28042;43.986;22.860;2023-07-31T00:37:20;16.65;;;14.95;;
42384;SDS011;28042;43.986;22.860;2023-07-31T00:39:45;16.52;;;14.93;;
42384;SDS011;28042;43.986;22.860;2023-07-31T00:42:11;17.42;;;15.55;;
42384;SDS011;28042;43.986;22.860;2023-07-31T00:44:36;17.58;;;15.70;;
42384;SDS011;28042;43.986;22.860;2023-07-31T00:47:02;16.95;;;15.25;;
42384;SDS011;28042;43.986;22.860;2023-07-31T00:49:27;17.08;;;15.38;;
42384;SDS011;28042;43.986;22.860;2023-07-31T00:51:53;16.92;;;15.23;;
42384;SDS011;28042;43.986;22.860;2023-07-31T00:54:19;17.48;;;15.77;;
42384;SDS011;28042;43.986;22.860;2023-07-31T00:56:45;16.38;;;14.75;;
42384;SDS011;28042;43.986;22.860;2023-07-31T00:59:13;19.75;;;15.55;;
42384;SDS011;28042;43.986;22.860;2023-07-31T01:01:39;16.73;;;15.13;;
42384;SDS011;28042;43.986;22.860;2023-07-31T01:04:05;17.52;;;15.75;;
42384;SDS011;28042;43.986;22.860;2023-07-31T01:06:36;17.55;;;15.95;;
42384;SDS011;28042;43.986;22.860;2023-07-31T01:09:45;18.60;;;16.70;;
42384;SDS011;28042;43.986;22.860;2023-07-31T01:12:17;18.10;;;16.42;;
42384;SDS011;28042;43.986;22.860;2023-07-31T01:14:52;20.15;;;18.08;;
42384;SDS011;28042;43.986;22.860;2023-07-31T01:17:39;19.38;;;17.58;;
42384;SDS011;28042;43.986;22.860;2023-07-31T01:20:05;18.73;;;16.90;;
42384;SDS011;28042;43.986;22.860;2023-07-31T01:22:43;19.63;;;17.88;;
42384;SDS011;28042;43.986;22.860;2023-07-31T01:25:29;19.30;;;17.52;;
42384;SDS011;28042;43.986;22.860;2023-07-31T01:31:32;19.25;;;17.45;;
42384;SDS011;28042;43.986;22.860;2023-07-31T01:34:00;20.13;;;18.08;;
42384;SDS011;28042;43.986;22.860;2023-07-31T01:36:26;19.70;;;17.90;;
42384;SDS011;28042;43.986;22.860;2023-07-31T01:38:57;19.60;;;17.80;;
42384;SDS011;28042;43.986;22.860;2023-07-31T01:41:24;20.65;;;18.70;;
42384;SDS011;28042;43.986;22.860;2023-07-31T01:43:49;19.77;;;17.65;;
42384;SDS011;28042;43.986;22.860;2023-07-31T01:46:14;20.42;;;18.42;;
42384;SDS011;28042;43.986;22.860;2023-07-31T01:48:40;21.52;;;19.27;;
42384;SDS011;28042;43.986;22.860;2023-07-31T01:51:07;20.63;;;18.30;;
42384;SDS011;28042;43.986;22.860;2023-07-31T01:53:32;20.90;;;19.00;;
42384;SDS011;28042;43.986;22.860;2023-07-31T01:55:58;19.77;;;17.98;;
42384;SDS011;28042;43.986;22.860;2023-07-31T01:58:24;19.95;;;18.13;;
42384;SDS011;28042;43.986;22.860;2023-07-31T02:00:49;20.40;;;17.83;;
42384;SDS011;28042;43.986;22.860;2023-07-31T02:03:15;19.60;;;17.60;;
42384;SDS011;28042;43.986;22.860;2023-07-31T02:05:44;19.00;;;17.02;;
42384;SDS011;28042;43.986;22.860;2023-07-31T02:08:10;18.77;;;16.85;;
42384;SDS011;28042;43.986;22.860;2023-07-31T02:10:35;16.83;;;15.23;;
42384;SDS011;28042;43.986;22.860;2023-07-31T02:13:01;15.85;;;14.45;;
42384;SDS011;28042;43.986;22.860;2023-07-31T02:15:29;16.10;;;14.40;;
42384;SDS011;28042;43.986;22.860;2023-07-31T02:17:55;15.88;;;14.23;;
42384;SDS011;28042;43.986;22.860;2023-07-31T02:20:20;15.50;;;13.95;;
42384;SDS011;28042;43.986;22.860;2023-07-31T02:22:46;14.63;;;13.18;;
42384;SDS011;28042;43.986;22.860;2023-07-31T02:25:11;16.30;;;14.18;;
42384;SDS011;28042;43.986;22.860;2023-07-31T02:27:37;15.00;;;13.55;;
42384;SDS011;28042;43.986;22.860;2023-07-31T02:30:02;15.80;;;14.18;;
42384;SDS011;28042;43.986;22.860;2023-07-31T02:32:28;14.70;;;13.35;;
42384;SDS011;28042;43.986;22.860;2023-07-31T02:34:53;14.00;;;12.68;;
42384;SDS011;28042;43.986;22.860;2023-07-31T02:37:19;14.82;;;13.43;;
42384;SDS011;28042;43.986;22.860;2023-07-31T02:39:44;14.55;;;13.23;;
42384;SDS011;28042;43.986;22.860;2023-07-31T02:42:10;14.32;;;12.85;;
42384;SDS011;28042;43.986;22.860;2023-07-31T02:44:35;12.38;;;11.07;;
42384;SDS011;28042;43.986;22.860;2023-07-31T02:47:00;11.93;;;10.80;;
42384;SDS011;28042;43.986;22.860;2023-07-31T02:49:26;14.43;;;12.93;;
42384;SDS011;28042;43.986;22.860;2023-07-31T02:51:52;13.25;;;11.90;;
42384;SDS011;28042;43.986;22.860;2023-07-31T02:54:17;13.27;;;11.98;;
42384;SDS011;28042;43.986;22.860;2023-07-31T02:56:42;12.55;;;11.25;;
42384;SDS011;28042;43.986;22.860;2023-07-31T02:59:08;13.45;;;11.88;;
42384;SDS011;28042;43.986;22.860;2023-07-31T03:01:33;14.10;;;11.15;;
42384;SDS011;28042;43.986;22.860;2023-07-31T03:03:59;12.57;;;11.27;;
42384;SDS011;28042;43.986;22.860;2023-07-31T03:06:24;12.80;;;11.55;;
42384;SDS011;28042;43.986;22.860;2023-07-31T03:08:51;12.38;;;11.18;;
42384;SDS011;28042;43.986;22.860;2023-07-31T03:11:16;12.30;;;10.38;;
42384;SDS011;28042;43.986;22.860;2023-07-31T03:13:42;12.80;;;10.65;;
42384;SDS011;28042;43.986;22.860;2023-07-31T03:16:07;11.98;;;10.50;;
42384;SDS011;28042;43.986;22.860;2023-07-31T03:18:32;13.10;;;10.88;;
42384;SDS011;28042;43.986;22.860;2023-07-31T03:20:58;12.32;;;10.30;;
42384;SDS011;28042;43.986;22.860;2023-07-31T03:23:23;10.60;;;8.65;;
42384;SDS011;28042;43.986;22.860;2023-07-31T03:26:00;14.45;;;10.13;;
42384;SDS011;28042;43.986;22.860;2023-07-31T03:28:28;10.98;;;9.88;;
42384;SDS011;28042;43.986;22.860;2023-07-31T03:30:53;11.82;;;8.70;;
42384;SDS011;28042;43.986;22.860;2023-07-31T03:33:19;9.95;;;8.35;;
42384;SDS011;28042;43.986;22.860;2023-07-31T03:35:44;8.77;;;7.43;;
42384;SDS011;28042;43.986;22.860;2023-07-31T03:38:10;12.55;;;8.23;;
42384;SDS011;28042;43.986;22.860;2023-07-31T03:40:36;7.78;;;6.97;;
42384;SDS011;28042;43.986;22.860;2023-07-31T03:43:01;11.32;;;7.47;;
42384;SDS011;28042;43.986;22.860;2023-07-31T03:45:27;8.88;;;7.38;;
42384;SDS011;28042;43.986;22.860;2023-07-31T03:47:52;9.40;;;6.90;;
42384;SDS011;28042;43.986;22.860;2023-07-31T03:50:19;11.33;;;8.00;;
42384;SDS011;28042;43.986;22.860;2023-07-31T03:52:45;10.32;;;6.68;;
42384;SDS011;28042;43.986;22.860;2023-07-31T03:55:10;9.80;;;6.65;;
42384;SDS011;28042;43.986;22.860;2023-07-31T03:57:36;6.82;;;6.00;;
42384;SDS011;28042;43.986;22.860;2023-07-31T04:00:01;8.57;;;5.75;;
42384;SDS011;28042;43.986;22.860;2023-07-31T04:02:26;6.18;;;5.15;;
42384;SDS011;28042;43.986;22.860;2023-07-31T04:04:52;8.30;;;5.45;;
42384;SDS011;28042;43.986;22.860;2023-07-31T04:07:17;9.20;;;5.80;;
42384;SDS011;28042;43.986;22.860;2023-07-31T04:09:43;7.15;;;5.40;;
42384;SDS011;28042;43.986;22.860;2023-07-31T04:12:08;7.32;;;5.47;;
42384;SDS011;28042;43.986;22.860;2023-07-31T04:14:34;6.82;;;5.20;;
42384;SDS011;28042;43.986;22.860;2023-07-31T04:16:59;6.97;;;4.70;;
42384;SDS011;28042;43.986;22.860;2023-07-31T04:19:24;8.02;;;5.20;;
42384;SDS011;28042;43.986;22.860;2023-07-31T04:21:50;6.68;;;4.95;;
42384;SDS011;28042;43.986;22.860;2023-07-31T04:24:15;9.45;;;5.07;;
42384;SDS011;28042;43.986;22.860;2023-07-31T04:26:41;6.07;;;4.63;;
42384;SDS011;28042;43.986;22.860;2023-07-31T04:29:06;12.30;;;4.80;;
42384;SDS011;28042;43.986;22.860;2023-07-31T04:31:33;5.90;;;4.85;;
42384;SDS011;28042;43.986;22.860;2023-07-31T04:33:58;6.93;;;5.50;;
42384;SDS011;28042;43.986;22.860;2023-07-31T04:36:24;8.50;;;5.55;;
42384;SDS011;28042;43.986;22.860;2023-07-31T04:38:49;8.25;;;5.93;;
42384;SDS011;28042;43.986;22.860;2023-07-31T04:41:15;8.50;;;4.97;;
42384;SDS011;28042;43.986;22.860;2023-07-31T04:43:40;9.27;;;5.03;;
42384;SDS011;28042;43.986;22.860;2023-07-31T04:46:06;10.73;;;5.57;;
42384;SDS011;28042;43.986;22.860;2023-07-31T04:48:31;12.52;;;4.80;;
42384;SDS011;28042;43.986;22.860;2023-07-31T04:50:57;6.90;;;4.78;;
42384;SDS011;28042;43.986;22.860;2023-07-31T04:53:22;7.20;;;5.05;;
42384;SDS011;28042;43.986;22.860;2023-07-31T04:55:48;7.15;;;4.90;;
42384;SDS011;28042;43.986;22.860;2023-07-31T04:58:14;8.27;;;5.38;;
42384;SDS011;28042;43.986;22.860;2023-07-31T05:00:39;6.90;;;4.60;;
42384;SDS011;28042;43.986;22.860;2023-07-31T05:03:05;6.45;;;4.70;;
42384;SDS011;28042;43.986;22.860;2023-07-31T05:05:31;6.88;;;4.55;;
42384;SDS011;28042;43.986;22.860;2023-07-31T05:07:57;6.80;;;4.40;;
42384;SDS011;28042;43.986;22.860;2023-07-31T05:10:22;6.43;;;3.97;;
42384;SDS011;28042;43.986;22.860;2023-07-31T05:12:47;6.95;;;4.40;;
42384;SDS011;28042;43.986;22.860;2023-07-31T05:15:13;6.30;;;3.83;;
42384;SDS011;28042;43.986;22.860;2023-07-31T05:17:38;4.45;;;3.40;;
42384;SDS011;28042;43.986;22.860;2023-07-31T05:20:04;6.03;;;3.30;;
42384;SDS011;28042;43.986;22.860;2023-07-31T05:22:30;4.00;;;3.15;;
42384;SDS011;28042;43.986;22.860;2023-07-31T05:24:55;5.35;;;2.97;;
42384;SDS011;28042;43.986;22.860;2023-07-31T05:27:21;4.35;;;2.72;;
42384;SDS011;28042;43.986;22.860;2023-07-31T05:29:47;3.88;;;2.75;;
42384;SDS011;28042;43.986;22.860;2023-07-31T05:32:12;5.50;;;2.85;;
42384;SDS011;28042;43.986;22.860;2023-07-31T05:34:38;3.72;;;2.85;;
42384;SDS011;28042;43.986;22.860;2023-07-31T05:37:04;4.78;;;3.92;;
42384;SDS011;28042;43.986;22.860;2023-07-31T05:39:30;4.68;;;3.45;;
42384;SDS011;28042;43.986;22.860;2023-07-31T05:41:56;5.05;;;3.85;;
42384;SDS011;28042;43.986;22.860;2023-07-31T05:44:21;5.28;;;4.10;;
42384;SDS011;28042;43.986;22.860;2023-07-31T05:46:47;6.00;;;4.32;;
42384;SDS011;28042;43.986;22.860;2023-07-31T05:49:12;9.15;;;4.35;;
42384;SDS011;28042;43.986;22.860;2023-07-31T05:51:38;10.13;;;5.00;;
42384;SDS011;28042;43.986;22.860;2023-07-31T05:54:03;7.18;;;4.15;;
42384;SDS011;28042;43.986;22.860;2023-07-31T05:56:28;4.63;;;3.47;;
42384;SDS011;28042;43.986;22.860;2023-07-31T05:58:54;6.70;;;4.40;;
42384;SDS011;28042;43.986;22.860;2023-07-31T06:01:19;5.65;;;3.63;;
42384;SDS011;28042;43.986;22.860;2023-07-31T06:03:46;6.03;;;3.80;;
42384;SDS011;28042;43.986;22.860;2023-07-31T06:06:11;4.38;;;3.65;;
42384;SDS011;28042;43.986;22.860;2023-07-31T06:08:38;5.30;;;3.30;;
42384;SDS011;28042;43.986;22.860;2023-07-31T06:11:04;5.75;;;2.92;;
42384;SDS011;28042;43.986;22.860;2023-07-31T06:13:30;8.07;;;3.20;;
42384;SDS011;28042;43.986;22.860;2023-07-31T06:15:56;7.75;;;2.92;;
42384;SDS011;28042;43.986;22.860;2023-07-31T06:18:22;2.95;;;2.22;;
42384;SDS011;28042;43.986;22.860;2023-07-31T06:20:47;5.07;;;2.53;;
42384;SDS011;28042;43.986;22.860;2023-07-31T06:23:18;2.88;;;2.10;;
42384;SDS011;28042;43.986;22.860;2023-07-31T06:25:43;5.10;;;2.70;;
42384;SDS011;28042;43.986;22.860;2023-07-31T06:28:09;3.22;;;2.00;;
42384;SDS011;28042;43.986;22.860;2023-07-31T06:30:34;3.75;;;2.30;;
42384;SDS011;28042;43.986;22.860;2023-07-31T06:33:00;3.72;;;1.88;;
42384;SDS011;28042;43.986;22.860;2023-07-31T06:35:25;3.55;;;1.70;;
42384;SDS011;28042;43.986;22.860;2023-07-31T06:37:51;5.28;;;2.33;;
42384;SDS011;28042;43.986;22.860;2023-07-31T06:40:16;6.13;;;2.30;;
42384;SDS011;28042;43.986;22.860;2023-07-31T06:42:42;8.02;;;2.50;;
42384;SDS011;28042;43.986;22.860;2023-07-31T06:45:07;6.70;;;3.03;;
42384;SDS011;28042;43.986;22.860;2023-07-31T06:47:33;6.25;;;2.83;;
42384;SDS011;28042;43.986;22.860;2023-07-31T06:49:59;5.20;;;2.97;;
42384;SDS011;28042;43.986;22.860;2023-07-31T06:52:24;9.05;;;3.10;;
42384;SDS011;28042;43.986;22.860;2023-07-31T06:55:02;5.15;;;2.70;;
42384;SDS011;28042;43.986;22.860;2023-07-31T06:57:48;4.28;;;2.35;;
42384;SDS011;28042;43.986;22.860;2023-07-31T07:00:15;5.82;;;2.83;;
42384;SDS011;28042;43.986;22.860;2023-07-31T07:02:41;4.38;;;2.92;;
42384;SDS011;28042;43.986;22.860;2023-07-31T07:05:07;5.28;;;2.67;;
42384;SDS011;28042;43.986;22.860;2023-07-31T07:07:33;10.40;;;3.08;;
42384;SDS011;28042;43.986;22.860;2023-07-31T07:10:01;7.80;;;2.35;;
42384;SDS011;28042;43.986;22.860;2023-07-31T07:12:29;4.72;;;2.03;;
42384;SDS011;28042;43.986;22.860;2023-07-31T07:14:55;4.05;;;2.25;;
42384;SDS011;28042;43.986;22.860;2023-07-31T07:17:20;7.35;;;2.28;;
42384;SDS011;28042;43.986;22.860;2023-07-31T07:19:47;3.47;;;2.10;;
42384;SDS011;28042;43.986;22.860;2023-07-31T07:22:13;8.85;;;2.67;;
42384;SDS011;28042;43.986;22.860;2023-07-31T07:24:38;5.40;;;2.50;;
42384;SDS011;28042;43.986;22.860;2023-07-31T07:27:04;5.53;;;3.38;;
42384;SDS011;28042;43.986;22.860;2023-07-31T07:29:29;7.70;;;3.63;;
42384;SDS011;28042;43.986;22.860;2023-07-31T07:31:55;4.50;;;3.45;;
42384;SDS011;28042;43.986;22.860;2023-07-31T07:34:22;6.35;;;4.40;;
42384;SDS011;28042;43.986;22.860;2023-07-31T07:36:49;6.13;;;4.72;;
42384;SDS011;28042;43.986;22.860;2023-07-31T07:39:14;6.60;;;4.13;;
42384;SDS011;28042;43.986;22.860;2023-07-31T07:41:40;6.80;;;4.97;;
42384;SDS011;28042;43.986;22.860;2023-07-31T07:44:05;8.52;;;5.28;;
42384;SDS011;28042;43.986;22.860;2023-07-31T07:46:31;13.30;;;6.15;;
42384;SDS011;28042;43.986;22.860;2023-07-31T07:48:56;9.60;;;6.15;;
42384;SDS011;28042;43.986;22.860;2023-07-31T07:51:22;7.97;;;5.93;;
42384;SDS011;28042;43.986;22.860;2023-07-31T07:53:48;8.77;;;5.78;;
42384;SDS011;28042;43.986;22.860;2023-07-31T07:56:13;10.68;;;6.78;;
42384;SDS011;28042;43.986;22.860;2023-07-31T07:58:39;10.55;;;7.80;;
42384;SDS011;28042;43.986;22.860;2023-07-31T08:01:04;9.93;;;8.35;;
42384;SDS011;28042;43.986;22.860;2023-07-31T08:03:29;9.23;;;7.03;;
42384;SDS011;28042;43.986;22.860;2023-07-31T08:06:01;15.35;;;9.40;;
42384;SDS011;28042;43.986;22.860;2023-07-31T08:08:27;12.75;;;9.88;;
42384;SDS011;28042;43.986;22.860;2023-07-31T08:10:53;15.05;;;9.93;;
42384;SDS011;28042;43.986;22.860;2023-07-31T08:13:19;12.10;;;9.50;;
42384;SDS011;28042;43.986;22.860;2023-07-31T08:15:44;11.35;;;9.70;;
42384;SDS011;28042;43.986;22.860;2023-07-31T08:18:10;11.90;;;10.50;;
42384;SDS011;28042;43.986;22.860;2023-07-31T08:23:03;13.18;;;9.88;;
42384;SDS011;28042;43.986;22.860;2023-07-31T08:25:28;9.45;;;7.38;;
42384;SDS011;28042;43.986;22.860;2023-07-31T08:27:54;10.63;;;8.85;;
42384;SDS011;28042;43.986;22.860;2023-07-31T08:30:19;14.77;;;8.82;;
42384;SDS011;28042;43.986;22.860;2023-07-31T08:32:45;10.98;;;8.95;;
42384;SDS011;28042;43.986;22.860;2023-07-31T08:35:10;9.00;;;8.10;;
42384;SDS011;28042;43.986;22.860;2023-07-31T08:37:37;17.10;;;8.10;;
42384;SDS011;28042;43.986;22.860;2023-07-31T08:40:03;9.52;;;8.00;;
42384;SDS011;28042;43.986;22.860;2023-07-31T08:42:29;9.13;;;7.50;;
42384;SDS011;28042;43.986;22.860;2023-07-31T08:44:55;8.73;;;7.32;;
42384;SDS011;28042;43.986;22.860;2023-07-31T08:47:21;8.27;;;7.45;;
42384;SDS011;28042;43.986;22.860;2023-07-31T08:49:47;9.30;;;6.95;;
42384;SDS011;28042;43.986;22.860;2023-07-31T08:52:13;9.07;;;8.02;;
42384;SDS011;28042;43.986;22.860;2023-07-31T08:54:39;10.48;;;7.60;;
42384;SDS011;28042;43.986;22.860;2023-07-31T08:57:05;8.45;;;7.10;;
42384;SDS011;28042;43.986;22.860;2023-07-31T08:59:31;9.77;;;8.68;;
42384;SDS011;28042;43.986;22.860;2023-07-31T09:02:07;10.15;;;7.07;;
42384;SDS011;28042;43.986;22.860;2023-07-31T09:04:33;7.88;;;6.13;;
42384;SDS011;28042;43.986;22.860;2023-07-31T09:07:01;7.18;;;5.95;;
42384;SDS011;28042;43.986;22.860;2023-07-31T09:09:29;7.65;;;5.38;;
42384;SDS011;28042;43.986;22.860;2023-07-31T09:11:57;10.98;;;5.70;;
42384;SDS011;28042;43.986;22.860;2023-07-31T09:16:53;4.90;;;3.90;;
42384;SDS011;28042;43.986;22.860;2023-07-31T09:19:26;7.05;;;5.70;;
42384;SDS011;28042;43.986;22.860;2023-07-31T09:21:58;6.80;;;4.30;;
42384;SDS011;28042;43.986;22.860;2023-07-31T09:24:28;6.22;;;4.00;;
42384;SDS011;28042;43.986;22.860;2023-07-31T09:26:55;7.13;;;3.70;;
42384;SDS011;28042;43.986;22.860;2023-07-31T09:29:22;5.53;;;4.07;;
42384;SDS011;28042;43.986;22.860;2023-07-31T09:31:48;5.28;;;4.50;;
42384;SDS011;28042;43.986;22.860;2023-07-31T09:34:13;6.15;;;4.20;;
42384;SDS011;28042;43.986;22.860;2023-07-31T09:36:42;7.45;;;4.07;;
42384;SDS011;28042;43.986;22.860;2023-07-31T09:39:10;5.25;;;4.28;;
42384;SDS011;28042;43.986;22.860;2023-07-31T09:44:06;10.18;;;4.57;;
42384;SDS011;28042;43.986;22.860;2023-07-31T09:46:34;4.10;;;3.25;;
42384;SDS011;28042;43.986;22.860;2023-07-31T09:49:07;4.22;;;3.60;;
42384;SDS011;28042;43.986;22.860;2023-07-31T09:51:34;5.13;;;3.95;;
42384;SDS011;28042;43.986;22.860;2023-07-31T09:54:13;5.75;;;3.72;;
42384;SDS011;28042;43.986;22.860;2023-07-31T09:56:45;5.07;;;4.07;;
42384;SDS011;28042;43.986;22.860;2023-07-31T09:59:13;3.85;;;3.00;;
42384;SDS011;28042;43.986;22.860;2023-07-31T10:01:40;4.75;;;2.92;;
42384;SDS011;28042;43.986;22.860;2023-07-31T10:04:10;7.30;;;3.13;;
42384;SDS011;28042;43.986;22.860;2023-07-31T10:06:36;12.35;;;3.70;;
42384;SDS011;28042;43.986;22.860;2023-07-31T10:09:07;4.78;;;3.10;;
42384;SDS011;28042;43.986;22.860;2023-07-31T10:11:41;5.53;;;2.97;;
42384;SDS011;28042;43.986;22.860;2023-07-31T10:14:11;4.45;;;2.40;;
42384;SDS011;28042;43.986;22.860;2023-07-31T10:16:38;3.80;;;2.20;;
42384;SDS011;28042;43.986;22.860;2023-07-31T10:19:04;4.38;;;2.53;;
42384;SDS011;28042;43.986;22.860;2023-07-31T10:21:31;5.97;;;3.17;;
42384;SDS011;28042;43.986;22.860;2023-07-31T10:24:01;3.10;;;1.90;;
42384;SDS011;28042;43.986;22.860;2023-07-31T10:26:29;4.55;;;2.38;;
42384;SDS011;28042;43.986;22.860;2023-07-31T10:28:55;3.35;;;2.10;;
42384;SDS011;28042;43.986;22.860;2023-07-31T10:31:23;3.90;;;2.28;;
42384;SDS011;28042;43.986;22.860;2023-07-31T10:33:49;4.07;;;1.83;;
42384;SDS011;28042;43.986;22.860;2023-07-31T10:36:19;3.97;;;2.13;;
42384;SDS011;28042;43.986;22.860;2023-07-31T10:38:46;2.75;;;1.40;;
42384;SDS011;28042;43.986;22.860;2023-07-31T10:41:14;3.67;;;2.03;;
42384;SDS011;28042;43.986;22.860;2023-07-31T10:43:39;2.05;;;1.65;;
42384;SDS011;28042;43.986;22.860;2023-07-31T10:46:08;10.63;;;2.35;;
42384;SDS011;28042;43.986;22.860;2023-07-31T10:48:37;2.35;;;1.70;;
42384;SDS011;28042;43.986;22.860;2023-07-31T10:51:09;3.53;;;1.95;;
42384;SDS011;28042;43.986;22.860;2023-07-31T10:53:38;2.95;;;2.15;;
42384;SDS011;28042;43.986;22.860;2023-07-31T10:56:05;3.45;;;2.10;;
42384;SDS011;28042;43.986;22.860;2023-07-31T11:00:59;2.55;;;1.45;;
42384;SDS011;28042;43.986;22.860;2023-07-31T11:03:26;3.45;;;1.80;;
42384;SDS011;28042;43.986;22.860;2023-07-31T11:06:05;4.53;;;1.85;;
42384;SDS011;28042;43.986;22.860;2023-07-31T11:08:34;4.00;;;1.70;;
42384;SDS011;28042;43.986;22.860;2023-07-31T11:11:07;2.22;;;1.70;;
42384;SDS011;28042;43.986;22.860;2023-07-31T11:16:08;3.22;;;1.45;;
42384;SDS011;28042;43.986;22.860;2023-07-31T11:18:34;2.92;;;1.80;;
42384;SDS011;28042;43.986;22.860;2023-07-31T11:21:00;4.85;;;1.60;;
42384;SDS011;28042;43.986;22.860;2023-07-31T11:23:25;2.63;;;1.85;;
42384;SDS011;28042;43.986;22.860;2023-07-31T11:25:51;19.70;;;2.88;;
42384;SDS011;28042;43.986;22.860;2023-07-31T11:28:17;2.10;;;1.30;;
42384;SDS011;28042;43.986;22.860;2023-07-31T11:30:44;2.45;;;1.42;;
42384;SDS011;28042;43.986;22.860;2023-07-31T11:33:11;5.28;;;2.40;;
42384;SDS011;28042;43.986;22.860;2023-07-31T11:35:45;10.38;;;1.90;;
42384;SDS011;28042;43.986;22.860;2023-07-31T11:38:12;2.80;;;1.40;;
42384;SDS011;28042;43.986;22.860;2023-07-31T11:40:47;8.35;;;2.25;;
42384;SDS011;28042;43.986;22.860;2023-07-31T11:43:13;8.15;;;2.13;;
42384;SDS011;28042;43.986;22.860;2023-07-31T11:45:42;22.65;;;3.03;;
42384;SDS011;28042;43.986;22.860;2023-07-31T11:48:18;8.70;;;2.63;;
42384;SDS011;28042;43.986;22.860;2023-07-31T11:50:48;7.30;;;2.10;;
42384;SDS011;28042;43.986;22.860;2023-07-31T11:53:16;4.18;;;1.60;;
42384;SDS011;28042;43.986;22.860;2023-07-31T11:55:44;13.00;;;2.95;;
42384;SDS011;28042;43.986;22.860;2023-07-31T11:58:11;8.73;;;1.98;;
42384;SDS011;28042;43.986;22.860;2023-07-31T12:00:38;9.18;;;2.60;;
42384;SDS011;28042;43.986;22.860;2023-07-31T12:03:03;3.72;;;1.60;;
42384;SDS011;28042;43.986;22.860;2023-07-31T12:05:29;4.63;;;1.70;;
42384;SDS011;28042;43.986;22.860;2023-07-31T12:07:55;2.53;;;1.73;;
42384;SDS011;28042;43.986;22.860;2023-07-31T12:10:24;9.25;;;2.40;;
42384;SDS011;28042;43.986;22.860;2023-07-31T12:13:00;4.38;;;2.00;;
42384;SDS011;28042;43.986;22.860;2023-07-31T12:18:07;4.40;;;1.95;;
42384;SDS011;28042;43.986;22.860;2023-07-31T12:20:34;3.53;;;1.70;;
42384;SDS011;28042;43.986;22.860;2023-07-31T12:23:00;3.25;;;1.73;;
42384;SDS011;28042;43.986;22.860;2023-07-31T12:25:30;2.75;;;1.67;;
42384;SDS011;28042;43.986;22.860;2023-07-31T12:27:57;7.03;;;2.38;;
42384;SDS011;28042;43.986;22.860;2023-07-31T12:30:26;5.50;;;1.80;;
42384;SDS011;28042;43.986;22.860;2023-07-31T12:32:53;7.03;;;1.90;;
42384;SDS011;28042;43.986;22.860;2023-07-31T12:35:18;2.83;;;1.60;;
42384;SDS011;28042;43.986;22.860;2023-07-31T12:37:44;2.55;;;1.67;;
42384;SDS011;28042;43.986;22.860;2023-07-31T12:40:09;3.95;;;1.73;;
42384;SDS011;28042;43.986;22.860;2023-07-31T12:42:35;6.95;;;2.42;;
42384;SDS011;28042;43.986;22.860;2023-07-31T12:45:01;3.95;;;1.50;;
42384;SDS011;28042;43.986;22.860;2023-07-31T12:47:26;3.28;;;1.90;;
42384;SDS011;28042;43.986;22.860;2023-07-31T12:49:52;9.98;;;2.22;;
42384;SDS011;28042;43.986;22.860;2023-07-31T12:52:17;3.67;;;1.85;;
42384;SDS011;28042;43.986;22.860;2023-07-31T12:54:42;4.50;;;1.38;;
42384;SDS011;28042;43.986;22.860;2023-07-31T12:57:08;3.00;;;1.35;;
42384;SDS011;28042;43.986;22.860;2023-07-31T12:59:34;2.28;;;1.60;;
42384;SDS011;28042;43.986;22.860;2023-07-31T13:01:59;3.20;;;1.60;;
42384;SDS011;28042;43.986;22.860;2023-07-31T13:04:24;4.43;;;1.60;;
42384;SDS011;28042;43.986;22.860;2023-07-31T13:06:50;2.47;;;1.80;;
42384;SDS011;28042;43.986;22.860;2023-07-31T13:09:15;3.22;;;1.70;;
42384;SDS011;28042;43.986;22.860;2023-07-31T13:11:42;2.00;;;1.50;;
42384;SDS011;28042;43.986;22.860;2023-07-31T13:14:08;3.17;;;1.30;;
42384;SDS011;28042;43.986;22.860;2023-07-31T13:16:33;3.13;;;1.80;;
42384;SDS011;28042;43.986;22.860;2023-07-31T13:18:59;8.48;;;2.17;;
42384;SDS011;28042;43.986;22.860;2023-07-31T13:21:24;2.03;;;1.55;;
42384;SDS011;28042;43.986;22.860;2023-07-31T13:23:49;2.88;;;1.75;;
42384;SDS011;28042;43.986;22.860;2023-07-31T13:26:15;2.05;;;1.50;;
42384;SDS011;28042;43.986;22.860;2023-07-31T13:28:40;8.60;;;2.88;;
42384;SDS011;28042;43.986;22.860;2023-07-31T13:31:06;4.43;;;2.45;;
42384;SDS011;28042;43.986;22.860;2023-07-31T13:33:31;4.10;;;1.88;;
42384;SDS011;28042;43.986;22.860;2023-07-31T13:35:56;5.25;;;2.63;;
42384;SDS011;28042;43.986;22.860;2023-07-31T13:38:22;11.57;;;2.65;;
42384;SDS011;28042;43.986;22.860;2023-07-31T13:40:47;4.47;;;2.03;;
42384;SDS011;28042;43.986;22.860;2023-07-31T13:43:13;2.38;;;1.70;;
42384;SDS011;28042;43.986;22.860;2023-07-31T13:45:38;3.65;;;1.92;;
42384;SDS011;28042;43.986;22.860;2023-07-31T13:48:03;8.10;;;2.20;;
42384;SDS011;28042;43.986;22.860;2023-07-31T13:50:30;3.25;;;1.92;;
42384;SDS011;28042;43.986;22.860;2023-07-31T13:52:56;3.50;;;2.00;;
42384;SDS011;28042;43.986;22.860;2023-07-31T13:55:21;2.83;;;1.80;;
42384;SDS011;28042;43.986;22.860;2023-07-31T13:57:47;6.82;;;2.00;;
42384;SDS011;28042;43.986;22.860;2023-07-31T14:00:13;8.27;;;2.03;;
42384;SDS011;28042;43.986;22.860;2023-07-31T14:02:39;3.72;;;1.83;;
42384;SDS011;28042;43.986;22.860;2023-07-31T14:05:04;4.57;;;1.90;;
42384;SDS011;28042;43.986;22.860;2023-07-31T14:07:31;2.92;;;1.98;;
42384;SDS011;28042;43.986;22.860;2023-07-31T14:09:57;5.53;;;1.90;;
42384;SDS011;28042;43.986;22.860;2023-07-31T14:12:22;6.85;;;2.15;;
42384;SDS011;28042;43.986;22.860;2023-07-31T14:14:48;9.60;;;2.10;;
42384;SDS011;28042;43.986;22.860;2023-07-31T14:17:13;6.63;;;2.08;;
42384;SDS011;28042;43.986;22.860;2023-07-31T14:19:39;2.72;;;1.80;;
42384;SDS011;28042;43.986;22.860;2023-07-31T14:22:04;12.02;;;2.08;;
42384;SDS011;28042;43.986;22.860;2023-07-31T14:24:30;7.60;;;2.17;;
42384;SDS011;28042;43.986;22.860;2023-07-31T14:26:55;8.63;;;2.08;;
42384;SDS011;28042;43.986;22.860;2023-07-31T14:29:21;9.77;;;2.40;;
42384;SDS011;28042;43.986;22.860;2023-07-31T14:31:49;3.58;;;1.67;;
42384;SDS011;28042;43.986;22.860;2023-07-31T14:34:14;4.57;;;1.70;;
42384;SDS011;28042;43.986;22.860;2023-07-31T14:36:40;7.00;;;1.80;;
42384;SDS011;28042;43.986;22.860;2023-07-31T14:39:06;5.68;;;1.70;;
42384;SDS011;28042;43.986;22.860;2023-07-31T14:41:31;6.55;;;2.50;;